Time;durP1;ratioP1;P1;durP2;ratioP2;P2;SDS_P1;SDS_P2;PMS_P1;PMS_P2;Temp;Humidity;BMP_temperature;BMP_pressure;BME280_temperature;BME280_humidity;BME280_pressure;Samples;Min_cycle;Max_cycle;Signal;HPM_P1;HPM_P2
2022/05/24 00:01:26;;;;;;;;;;;;;;;;;;4897209;29;19931;-68
2022/05/24 00:03:52;;;;;;;;;;;;;;;;;;4896742;29;19915;-69
2022/05/24 00:06:18;;;;;;;;;;;;;;;;;;4897109;29;20026;-68
2022/05/24 00:08:43;;;;;;;;;;;;;;;;;;4896554;29;19963;-67
2022/05/24 00:11:09;;;;;;;;;;;;;;;;;;4896984;29;19915;-68
2022/05/24 00:13:35;;;;;;;;;;;;;;;;;;4879890;29;19922;-68
2022/05/24 00:16:00;;;;;;;;;;;;;;;;;;4896577;29;19915;-68
2022/05/24 00:18:26;;;;;;;;;;;;;;;;;;4896745;29;19915;-68
2022/05/24 00:20:51;;;;;;;;;;;;;;;;;;4896567;29;20072;-68
2022/05/24 00:23:17;;;;;;;;;;;;;;;;;;4896539;29;20313;-69
2022/05/24 00:25:45;;;;;;;;;;;;;;;;;;4896442;29;19958;-68
2022/05/24 00:28:11;;;;;;;;;;;;;;;;;;4896169;29;19965;-69
2022/05/24 00:30:36;;;;;;;;;;;;;;;;;;4896680;29;20292;-68
2022/05/24 00:33:03;;;;;;;;;;;;;;;;;;4896184;29;19919;-66
2022/05/24 00:35:29;;;;;;;;;;;;;;;;;;4896195;29;20292;-69
2022/05/24 00:37:55;;;;;;;;;;;;;;;;;;4896041;29;19922;-66
2022/05/24 00:40:21;;;;;;;;;;;;;;;;;;4879778;29;20009;-68
2022/05/24 00:42:46;;;;;;;;;;;;;;;;;;4896090;29;19975;-68
2022/05/24 00:45:12;;;;;;;;;;;;;;;;;;4896669;29;19915;-68
2022/05/24 00:47:42;;;;;;;;;;;;;;;;;;4896432;29;20006;-68
2022/05/24 00:50:07;;;;;;;;;;;;;;;;;;4894823;29;20001;-68
2022/05/24 00:52:33;;;;;;;;;;;;;;;;;;4896166;29;19937;-68
2022/05/24 00:55:00;;;;;;;;;;;;;;;;;;4894684;29;20442;-68
2022/05/24 00:57:25;;;;;;;;;;;;;;;;;;4896247;29;19919;-68
2022/05/24 00:59:51;;;;;;;;;;;;;;;;;;4895979;29;19922;-69
2022/05/24 01:02:17;;;;;;;;;;;;;;;;;;4896221;29;19930;-70
2022/05/24 01:04:43;;;;;;;;;;;;;;;;;;4895948;29;19915;-66
2022/05/24 01:07:09;;;;;;;;;;;;;;;;;;4894715;29;19915;-68
2022/05/24 01:09:36;;;;;;;;;;;;;;;;;;4896031;29;19915;-67
2022/05/24 01:12:02;;;;;;;;;;;;;;;;;;4895623;29;19915;-66
2022/05/24 01:14:28;;;;;;;;;;;;;;;;;;4895846;29;19989;-67
2022/05/24 01:16:53;;;;;;;;;;;;;;;;;;4895648;29;20306;-66
2022/05/24 01:19:19;;;;;;;;;;;;;;;;;;4895549;29;20006;-67
2022/05/24 01:21:44;;;;;;;;;;;;;;;;;;4895820;29;19963;-67
2022/05/24 01:24:11;;;;;;;;;;;;;;;;;;4896112;29;19918;-67
2022/05/24 01:26:37;;;;;;;;;;;;;;;;;;4896669;29;20406;-68
2022/05/24 01:29:02;;;;;;;;;;;;;;;;;;4895249;29;20314;-68
2022/05/24 01:36:09;;;;;;;;;;;;;;;;;;4896499;29;20512;-66
2022/05/24 01:36:58;;;;;;;;;;;;;;;;;;4895200;29;19933;-67
2022/05/24 01:39:24;;;;;;;;;;;;;;;;;;4894777;29;19920;-66
2022/05/24 01:41:51;;;;;;;;;;;;;;;;;;4895133;29;19978;-66
2022/05/24 01:44:16;;;;;;;;;;;;;;;;;;4895422;29;19915;-65
2022/05/24 01:46:42;;;;;;;;;;;;;;;;;;4878580;29;19923;-67
2022/05/24 01:49:07;;;;;;;;;;;;;;;;;;4895071;29;20324;-67
2022/05/24 01:51:33;;;;;;;;;;;;;;;;;;4894401;29;19940;-70
2022/05/24 01:53:58;;;;;;;;;;;;;;;;;;4894830;29;20350;-69
2022/05/24 01:56:24;;;;;;;;;;;;;;;;;;4895422;29;20381;-68
2022/05/24 01:58:50;;;;;;;;;;;;;;;;;;4894958;29;19938;-67
2022/05/24 02:01:15;;;;;;;;;;;;;;;;;;4893991;29;19923;-67
2022/05/24 02:03:41;;;;;;;;;;;;;;;;;;4895110;29;19963;-68
2022/05/24 02:06:06;;;;;;;;;;;;;;;;;;4894757;29;19915;-66
2022/05/24 02:08:32;;;;;;;;;;;;;;;;;;4878410;29;20005;-67
2022/05/24 02:10:58;;;;;;;;;;;;;;;;;;4878218;29;19923;-67
2022/05/24 02:13:23;;;;;;;;;;;;;;;;;;4878421;29;20017;-68
2022/05/24 02:15:49;;;;;;;;;;;;;;;;;;4894245;29;20015;-68
2022/05/24 02:18:14;;;;;;;;;;;;;;;;;;4895186;29;20061;-66
2022/05/24 02:20:40;;;;;;;;;;;;;;;;;;4894948;29;19942;-69
2022/05/24 02:23:06;;;;;;;;;;;;;;;;;;4895341;29;19928;-67
2022/05/24 02:25:31;;;;;;;;;;;;;;;;;;4896284;29;19919;-68
2022/05/24 02:27:57;;;;;;;;;;;;;;;;;;4895580;29;19920;-66
2022/05/24 02:30:22;;;;;;;;;;;;;;;;;;4895981;29;20005;-67
2022/05/24 02:32:48;;;;;;;;;;;;;;;;;;4896119;29;20251;-67
2022/05/24 02:35:13;;;;;;;;;;;;;;;;;;4903555;29;19979;-66
2022/05/24 02:37:39;;;;;;;;;;;;;;;;;;4915515;29;19974;-67
2022/05/24 02:42:49;;;;;;;;;;;;;;;;;;4915869;29;20393;-68
2022/05/24 02:45:15;;;;;;;;;;;;;;;;;;4903230;29;19915;-68
2022/05/24 02:47:40;;;;;;;;;;;;;;;;;;4896914;29;19922;-69
2022/05/24 02:50:09;;;;;;;;;;;;;;;;;;4896950;29;19915;-69
2022/05/24 02:52:35;;;;;;;;;;;;;;;;;;4900415;29;19926;-68
2022/05/24 02:55:00;;;;;;;;;;;;;;;;;;4899714;29;19919;-68
2022/05/24 02:57:26;;;;;;;;;;;;;;;;;;4900060;29;20402;-68
2022/05/24 02:59:51;;;;;;;;;;;;;;;;;;4899583;29;20413;-68
2022/05/24 03:02:17;;;;;;;;;;;;;;;;;;4900631;29;19934;-67
2022/05/24 03:04:43;;;;;;;;;;;;;;;;;;4884627;29;19916;-68
2022/05/24 03:09:53;;;;;;;;;;;;;;;;;;4901686;29;20060;-67
2022/05/24 03:15:03;;;;;;;;;;;;;;;;;;4901453;29;20409;-68
2022/05/24 03:17:30;;;;;;;;;;;;;;;;;;4901528;29;19972;-68
2022/05/24 03:19:56;;;;;;;;;;;;;;;;;;4900490;29;19919;-69
2022/05/24 03:22:22;;;;;;;;;;;;;;;;;;4899940;29;20337;-69
2022/05/24 03:24:47;;;;;;;;;;;;;;;;;;4900463;29;19916;-68
2022/05/24 03:27:14;;;;;;;;;;;;;;;;;;4899994;29;19915;-68
2022/05/24 03:29:40;;;;;;;;;;;;;;;;;;4900076;29;19922;-70
2022/05/24 03:32:05;;;;;;;;;;;;;;;;;;4899453;29;20005;-69
2022/05/24 03:34:31;;;;;;;;;;;;;;;;;;4900299;29;19951;-68
2022/05/24 03:36:56;;;;;;;;;;;;;;;;;;4900050;29;19980;-69
2022/05/24 03:39:22;;;;;;;;;;;;;;;;;;4899744;29;19915;-70
2022/05/24 03:41:48;;;;;;;;;;;;;;;;;;4883792;29;20010;-70
2022/05/24 03:44:13;;;;;;;;;;;;;;;;;;4899353;29;20904;-70
2022/05/24 03:46:40;;;;;;;;;;;;;;;;;;4899033;29;19955;-69
2022/05/24 03:49:05;;;;;;;;;;;;;;;;;;4898523;29;19919;-70
2022/05/24 03:51:31;;;;;;;;;;;;;;;;;;4898504;29;20283;-71
2022/05/24 03:53:56;;;;;;;;;;;;;;;;;;4881727;29;20011;-70
2022/05/24 03:56:25;;;;;;;;;;;;;;;;;;4898590;29;20462;-69
2022/05/24 03:58:51;;;;;;;;;;;;;;;;;;4882472;29;19916;-70
2022/05/24 04:01:16;;;;;;;;;;;;;;;;;;4898376;29;20382;-68
2022/05/24 04:03:42;;;;;;;;;;;;;;;;;;4897169;29;20010;-68
2022/05/24 04:06:10;;;;;;;;;;;;;;;;;;4881658;29;20341;-68
2022/05/24 04:08:36;;;;;;;;;;;;;;;;;;4897996;29;19915;-68
2022/05/24 04:11:02;;;;;;;;;;;;;;;;;;4880713;29;19923;-69
2022/05/24 04:13:27;;;;;;;;;;;;;;;;;;4898181;29;20318;-69
2022/05/24 04:15:53;;;;;;;;;;;;;;;;;;4881396;29;20010;-70
2022/05/24 04:18:19;;;;;;;;;;;;;;;;;;4897576;29;19915;-68
2022/05/24 04:20:46;;;;;;;;;;;;;;;;;;4880788;29;20481;-68
2022/05/24 04:23:12;;;;;;;;;;;;;;;;;;4897211;29;20018;-68
2022/05/24 04:25:38;;;;;;;;;;;;;;;;;;4897963;29;19963;-71
2022/05/24 04:28:03;;;;;;;;;;;;;;;;;;4880329;29;19922;-70
2022/05/24 04:30:29;;;;;;;;;;;;;;;;;;4880552;29;19972;-69
2022/05/24 04:32:54;;;;;;;;;;;;;;;;;;4896950;29;19916;-70
2022/05/24 04:35:20;;;;;;;;;;;;;;;;;;4896307;29;20017;-69
2022/05/24 04:37:46;;;;;;;;;;;;;;;;;;4892423;29;20007;-70
2022/05/24 04:40:12;;;;;;;;;;;;;;;;;;4877935;29;19983;-69
2022/05/24 04:42:38;;;;;;;;;;;;;;;;;;4878158;29;19983;-71
2022/05/24 04:45:06;;;;;;;;;;;;;;;;;;4859583;29;19923;-70
2022/05/24 04:47:31;;;;;;;;;;;;;;;;;;4877952;29;20363;-70
2022/05/24 04:49:57;;;;;;;;;;;;;;;;;;4875960;29;20391;-70
2022/05/24 04:52:25;;;;;;;;;;;;;;;;;;4875932;29;20362;-70
2022/05/24 04:54:51;;;;;;;;;;;;;;;;;;4877539;29;19915;-69
2022/05/24 04:57:16;;;;;;;;;;;;;;;;;;4876212;29;19922;-70
2022/05/24 04:59:42;;;;;;;;;;;;;;;;;;4878082;29;19916;-70
2022/05/24 05:02:07;;;;;;;;;;;;;;;;;;4877296;29;19923;-69
2022/05/24 05:04:33;;;;;;;;;;;;;;;;;;4878617;29;19915;-70
2022/05/24 05:06:58;;;;;;;;;;;;;;;;;;4877244;29;19964;-71
2022/05/24 05:09:24;;;;;;;;;;;;;;;;;;4877176;29;19916;-69
2022/05/24 05:11:50;;;;;;;;;;;;;;;;;;4875875;29;20445;-69
2022/05/24 05:14:15;;;;;;;;;;;;;;;;;;4875836;29;19915;-69
2022/05/24 05:16:41;;;;;;;;;;;;;;;;;;4877079;29;19916;-69
2022/05/24 05:19:06;;;;;;;;;;;;;;;;;;4876085;29;19915;-68
2022/05/24 05:21:32;;;;;;;;;;;;;;;;;;4876696;29;19924;-70
2022/05/24 05:23:58;;;;;;;;;;;;;;;;;;4876349;29;20446;-69
2022/05/24 05:26:23;;;;;;;;;;;;;;;;;;4875015;29;20280;-70
2022/05/24 05:28:49;;;;;;;;;;;;;;;;;;4874958;29;19923;-69
2022/05/24 05:31:19;;;;;;;;;;;;;;;;;;4874775;29;20026;-69
2022/05/24 05:33:45;;;;;;;;;;;;;;;;;;4874664;29;19923;-69
2022/05/24 05:36:10;;;;;;;;;;;;;;;;;;4889021;29;19923;-67
2022/05/24 05:38:36;;;;;;;;;;;;;;;;;;4893336;29;19916;-69
2022/05/24 05:41:03;;;;;;;;;;;;;;;;;;4907483;29;19980;-70
2022/05/24 05:43:28;;;;;;;;;;;;;;;;;;4893450;29;20014;-69
2022/05/24 05:45:56;;;;;;;;;;;;;;;;;;4893309;29;19915;-69
2022/05/24 05:48:22;;;;;;;;;;;;;;;;;;4893068;29;20315;-69
2022/05/24 05:50:47;;;;;;;;;;;;;;;;;;4895606;29;20401;-69
2022/05/24 05:53:13;;;;;;;;;;;;;;;;;;4878670;29;19915;-69
2022/05/24 05:55:38;;;;;;;;;;;;;;;;;;4895352;29;20402;-69
2022/05/24 05:58:04;;;;;;;;;;;;;;;;;;4895174;29;20309;-69
2022/05/24 06:00:30;;;;;;;;;;;;;;;;;;4895238;29;19919;-69
2022/05/24 06:02:56;;;;;;;;;;;;;;;;;;4895564;29;19923;-68
2022/05/24 06:05:22;;;;;;;;;;;;;;;;;;4894991;29;19915;-68
2022/05/24 06:07:47;;;;;;;;;;;;;;;;;;4895375;29;20354;-69
2022/05/24 06:10:13;;;;;;;;;;;;;;;;;;4894856;29;19922;-68
2022/05/24 06:12:38;;;;;;;;;;;;;;;;;;4895249;29;20018;-68
2022/05/24 06:15:04;;;;;;;;;;;;;;;;;;4894882;29;20370;-69
2022/05/24 06:17:29;;;;;;;;;;;;;;;;;;4895278;29;19938;-69
2022/05/24 06:19:55;;;;;;;;;;;;;;;;;;4878187;29;19923;-69
2022/05/24 06:22:21;;;;;;;;;;;;;;;;;;4878074;29;19924;-69
2022/05/24 06:24:46;;;;;;;;;;;;;;;;;;4894927;29;19915;-69
2022/05/24 06:27:12;;;;;;;;;;;;;;;;;;4898418;29;19911;-70
2022/05/24 06:29:37;;;;;;;;;;;;;;;;;;4898961;29;19923;-69
2022/05/24 06:32:03;;;;;;;;;;;;;;;;;;4898783;29;20395;-70
2022/05/24 06:34:29;;;;;;;;;;;;;;;;;;4898461;29;19922;-68
2022/05/24 06:36:55;;;;;;;;;;;;;;;;;;4898651;29;19923;-68
2022/05/24 06:39:21;;;;;;;;;;;;;;;;;;4897147;29;19995;-69
2022/05/24 06:41:46;;;;;;;;;;;;;;;;;;4898708;29;19930;-68
2022/05/24 06:44:14;;;;;;;;;;;;;;;;;;4881387;29;20002;-69
2022/05/24 06:46:40;;;;;;;;;;;;;;;;;;4898498;29;19945;-70
2022/05/24 06:49:05;;;;;;;;;;;;;;;;;;4881198;29;19923;-69
2022/05/24 06:51:31;;;;;;;;;;;;;;;;;;4898654;29;19912;-68
2022/05/24 06:53:56;;;;;;;;;;;;;;;;;;4898323;29;19922;-69
2022/05/24 06:56:22;;;;;;;;;;;;;;;;;;4898182;29;20441;-69
2022/05/24 06:58:49;;;;;;;;;;;;;;;;;;4898108;29;19922;-69
2022/05/24 07:03:59;;;;;;;;;;;;;;;;;;4898023;29;19916;-67
2022/05/24 07:06:24;;;;;;;;;;;;;;;;;;4898084;29;20318;-69
2022/05/24 07:08:50;;;;;;;;;;;;;;;;;;4897997;29;19922;-69
2022/05/24 07:11:16;;;;;;;;;;;;;;;;;;4897737;29;19972;-69
2022/05/24 07:13:42;;;;;;;;;;;;;;;;;;4881247;29;19919;-69
2022/05/24 07:16:07;;;;;;;;;;;;;;;;;;4897938;29;20355;-69
2022/05/24 07:18:34;;;;;;;;;;;;;;;;;;4898055;29;19915;-69
2022/05/24 07:21:00;;;;;;;;;;;;;;;;;;4897840;29;19926;-69
2022/05/24 07:23:26;;;;;;;;;;;;;;;;;;4897620;29;19916;-69
2022/05/24 07:25:51;;;;;;;;;;;;;;;;;;4897873;29;20309;-69
2022/05/24 07:28:17;;;;;;;;;;;;;;;;;;4880883;29;19919;-68
2022/05/24 07:30:43;;;;;;;;;;;;;;;;;;4880984;29;19934;-69
2022/05/24 07:33:10;;;;;;;;;;;;;;;;;;4897595;29;19915;-69
2022/05/24 07:35:35;;;;;;;;;;;;;;;;;;4897632;29;19923;-69
2022/05/24 07:38:01;;;;;;;;;;;;;;;;;;4896464;29;20394;-68
2022/05/24 07:46:16;;;;;;;;;;;;;;;;;;4857704;29;19915;-69
2022/05/24 07:48:41;;;;;;;;;;;;;;;;;;4881108;29;19915;-69
2022/05/24 07:51:07;;;;;;;;;;;;;;;;;;4865066;29;19925;-69
2022/05/24 07:53:33;;;;;;;;;;;;;;;;;;4897356;29;20418;-69
2022/05/24 07:55:58;;;;;;;;;;;;;;;;;;4897447;29;20446;-69
2022/05/24 07:58:24;;;;;;;;;;;;;;;;;;4897179;29;19922;-70
2022/05/24 08:00:49;;;;;;;;;;;;;;;;;;4897158;29;19919;-69
2022/05/24 08:03:15;;;;;;;;;;;;;;;;;;4896940;29;19926;-69
2022/05/24 08:05:40;;;;;;;;;;;;;;;;;;4897216;29;20458;-68
2022/05/24 08:08:06;;;;;;;;;;;;;;;;;;4880676;29;19923;-69
2022/05/24 08:10:31;;;;;;;;;;;;;;;;;;4896997;29;20347;-69
2022/05/24 08:12:57;;;;;;;;;;;;;;;;;;4897434;29;19954;-69
2022/05/24 08:15:23;;;;;;;;;;;;;;;;;;4897064;29;19923;-69
2022/05/24 08:17:49;;;;;;;;;;;;;;;;;;4897339;29;19958;-68
2022/05/24 08:20:15;;;;;;;;;;;;;;;;;;4896779;29;20429;-70
2022/05/24 08:22:40;;;;;;;;;;;;;;;;;;4897102;29;19923;-69
2022/05/24 08:25:06;;;;;;;;;;;;;;;;;;4896959;29;19916;-69
2022/05/24 08:27:32;;;;;;;;;;;;;;;;;;4897145;29;19921;-69
2022/05/24 08:29:59;;;;;;;;;;;;;;;;;;4896947;29;20053;-69
2022/05/24 08:32:24;;;;;;;;;;;;;;;;;;4880028;29;20002;-69
2022/05/24 08:34:50;;;;;;;;;;;;;;;;;;4896647;29;20034;-68
2022/05/24 08:37:16;;;;;;;;;;;;;;;;;;4896736;29;20439;-68
2022/05/24 08:39:41;;;;;;;;;;;;;;;;;;4896842;29;19915;-69
2022/05/24 08:42:07;;;;;;;;;;;;;;;;;;4880166;29;20458;-68
2022/05/24 08:50:01;;;;;;;;;;;;;;;;;;4896136;29;20007;-69
2022/05/24 08:52:28;;;;;;;;;;;;;;;;;;4896266;29;20406;-68
2022/05/24 08:54:53;;;;;;;;;;;;;;;;;;4879642;29;20011;-69
2022/05/24 08:57:19;;;;;;;;;;;;;;;;;;4896018;29;19915;-69
2022/05/24 08:59:45;;;;;;;;;;;;;;;;;;4896348;29;20014;-69
2022/05/24 09:02:10;;;;;;;;;;;;;;;;;;4896361;29;20417;-69
2022/05/24 09:04:36;;;;;;;;;;;;;;;;;;4896085;29;19915;-69
2022/05/24 09:07:01;;;;;;;;;;;;;;;;;;4896357;29;20006;-69
2022/05/24 09:09:28;;;;;;;;;;;;;;;;;;4895724;29;19983;-69
2022/05/24 09:11:54;;;;;;;;;;;;;;;;;;4896354;29;20390;-68
2022/05/24 09:14:20;;;;;;;;;;;;;;;;;;4895922;29;19915;-69
2022/05/24 09:16:46;;;;;;;;;;;;;;;;;;4896099;29;19923;-68
2022/05/24 09:19:11;;;;;;;;;;;;;;;;;;4895788;29;20347;-68
2022/05/24 09:21:42;;;;;;;;;;;;;;;;;;4896104;29;19923;-68
2022/05/24 09:24:08;;;;;;;;;;;;;;;;;;4896051;29;19926;-68
2022/05/24 09:26:34;;;;;;;;;;;;;;;;;;4879297;29;19915;-69
2022/05/24 09:29:00;;;;;;;;;;;;;;;;;;4863532;29;19916;-68
2022/05/24 09:31:26;;;;;;;;;;;;;;;;;;4895915;29;20410;-68
2022/05/24 09:33:51;;;;;;;;;;;;;;;;;;4879238;29;19961;-69
2022/05/24 09:36:18;;;;;;;;;;;;;;;;;;4895394;29;19927;-69
2022/05/24 09:38:43;;;;;;;;;;;;;;;;;;4879430;29;19915;-69
2022/05/24 09:41:09;;;;;;;;;;;;;;;;;;4879233;29;19926;-71
2022/05/24 09:43:35;;;;;;;;;;;;;;;;;;4895933;29;19922;-69
2022/05/24 09:46:02;;;;;;;;;;;;;;;;;;4895601;29;20085;-68
2022/05/24 09:48:27;;;;;;;;;;;;;;;;;;4914517;29;20018;-69
2022/05/24 09:50:53;;;;;;;;;;;;;;;;;;4914353;29;19922;-68
2022/05/24 09:53:19;;;;;;;;;;;;;;;;;;4897592;29;19919;-69
2022/05/24 09:55:45;;;;;;;;;;;;;;;;;;4914816;29;19914;-69
2022/05/24 09:58:10;;;;;;;;;;;;;;;;;;4914659;29;19914;-69
2022/05/24 10:00:36;;;;;;;;;;;;;;;;;;4913464;29;20422;-69
2022/05/24 10:03:01;;;;;;;;;;;;;;;;;;4897624;29;19921;-69
2022/05/24 10:05:27;;;;;;;;;;;;;;;;;;4897355;29;19915;-68
2022/05/24 10:07:52;;;;;;;;;;;;;;;;;;4914307;29;19967;-69
2022/05/24 10:10:18;;;;;;;;;;;;;;;;;;4897031;29;19919;-69
2022/05/24 10:12:44;;;;;;;;;;;;;;;;;;4914195;29;20374;-70
2022/05/24 10:15:10;;;;;;;;;;;;;;;;;;4914168;29;20014;-69
2022/05/24 10:17:35;;;;;;;;;;;;;;;;;;4914482;29;19922;-70
2022/05/24 10:20:01;;;;;;;;;;;;;;;;;;4914081;29;19915;-69
2022/05/24 10:22:28;;;;;;;;;;;;;;;;;;4913995;29;19942;-68
2022/05/24 10:24:53;;;;;;;;;;;;;;;;;;4897314;29;19922;-72
2022/05/24 10:27:19;;;;;;;;;;;;;;;;;;4914054;29;19919;-69
2022/05/24 10:29:47;;;;;;;;;;;;;;;;;;4913928;29;19922;-69
2022/05/24 10:38:17;;;;;;;;;;;;;;;;;;4913830;29;19922;-68
2022/05/24 10:40:27;;;;;;;;;;;;;;;;;;4913625;29;19970;-69
2022/05/24 10:42:52;;;;;;;;;;;;;;;;;;4913853;29;19923;-68
2022/05/24 10:45:18;;;;;;;;;;;;;;;;;;4912521;29;19950;-69
2022/05/24 10:47:44;;;;;;;;;;;;;;;;;;4899220;29;19915;-68
2022/05/24 10:50:09;;;;;;;;;;;;;;;;;;4894888;29;19979;-69
2022/05/24 10:52:35;;;;;;;;;;;;;;;;;;4894749;29;19980;-69
2022/05/24 10:55:00;;;;;;;;;;;;;;;;;;4894725;29;20397;-69
2022/05/24 10:57:26;;;;;;;;;;;;;;;;;;4878093;29;19915;-69
2022/05/24 10:59:52;;;;;;;;;;;;;;;;;;4894914;29;19915;-69
2022/05/24 11:02:17;;;;;;;;;;;;;;;;;;4894711;29;19934;-69
2022/05/24 11:04:43;;;;;;;;;;;;;;;;;;4894522;29;19916;-69
2022/05/24 11:07:11;;;;;;;;;;;;;;;;;;4878185;29;19971;-69
2022/05/24 11:09:37;;;;;;;;;;;;;;;;;;4890795;29;19915;-69
2022/05/24 11:12:02;;;;;;;;;;;;;;;;;;4896266;29;19930;-68
2022/05/24 11:14:28;;;;;;;;;;;;;;;;;;4896514;29;19923;-69
2022/05/24 11:16:54;;;;;;;;;;;;;;;;;;4912683;29;19922;-69
2022/05/24 11:19:19;;;;;;;;;;;;;;;;;;4898062;29;19954;-68
2022/05/24 11:21:45;;;;;;;;;;;;;;;;;;4911723;29;20445;-69
2022/05/24 11:24:10;;;;;;;;;;;;;;;;;;4897296;29;20013;-69
2022/05/24 11:26:38;;;;;;;;;;;;;;;;;;4897435;29;20347;-69
2022/05/24 11:29:03;;;;;;;;;;;;;;;;;;4897739;29;20014;-68
2022/05/24 11:31:29;;;;;;;;;;;;;;;;;;4897239;29;20014;-69
2022/05/24 11:33:56;;;;;;;;;;;;;;;;;;4897516;29;20010;-69
2022/05/24 11:36:22;;;;;;;;;;;;;;;;;;4896878;29;20433;-69
2022/05/24 11:38:48;;;;;;;;;;;;;;;;;;4897165;29;19958;-69
2022/05/24 11:41:17;;;;;;;;;;;;;;;;;;4897197;29;19942;-68
2022/05/24 11:43:43;;;;;;;;;;;;;;;;;;4897226;29;19919;-69
2022/05/24 11:46:09;;;;;;;;;;;;;;;;;;4864890;29;19915;-68
2022/05/24 11:48:34;;;;;;;;;;;;;;;;;;4896973;29;20410;-68
2022/05/24 11:51:00;;;;;;;;;;;;;;;;;;4897095;29;19915;-69
2022/05/24 11:53:25;;;;;;;;;;;;;;;;;;4880160;29;20356;-69
2022/05/24 11:55:51;;;;;;;;;;;;;;;;;;4865005;29;19915;-69
2022/05/24 11:58:16;;;;;;;;;;;;;;;;;;4897126;29;20067;-69
2022/05/24 12:00:42;;;;;;;;;;;;;;;;;;4896953;29;19939;-69
2022/05/24 12:08:36;;;;;;;;;;;;;;;;;;4897091;29;19915;-69
2022/05/24 12:11:01;;;;;;;;;;;;;;;;;;4897038;29;19966;-69
2022/05/24 12:13:27;;;;;;;;;;;;;;;;;;4896783;29;20394;-70
2022/05/24 12:15:52;;;;;;;;;;;;;;;;;;4896946;29;20355;-70
2022/05/24 12:18:18;;;;;;;;;;;;;;;;;;4880839;29;20710;-69
2022/05/24 12:20:44;;;;;;;;;;;;;;;;;;4897582;29;19970;-69
2022/05/24 12:23:09;;;;;;;;;;;;;;;;;;4896618;29;19927;-71
2022/05/24 12:25:35;;;;;;;;;;;;;;;;;;4897347;29;19963;-69
2022/05/24 12:28:00;;;;;;;;;;;;;;;;;;4896797;29;19938;-69
2022/05/24 12:30:28;;;;;;;;;;;;;;;;;;4879781;29;19922;-68
2022/05/24 12:32:53;;;;;;;;;;;;;;;;;;4865321;29;20003;-68
2022/05/24 12:39:13;;;;;;;;;;;;;;;;;;4838899;29;19965;-68
2022/05/24 12:41:39;;;;;;;;;;;;;;;;;;4824004;29;19973;-69
2022/05/24 12:44:05;;;;;;;;;;;;;;;;;;4820495;29;19915;-69
2022/05/24 12:46:31;;;;;;;;;;;;;;;;;;4849412;29;19915;-69
2022/05/24 12:48:57;;;;;;;;;;;;;;;;;;4849609;29;20260;-69
2022/05/24 12:51:23;;;;;;;;;;;;;;;;;;4848392;29;19915;-69
2022/05/24 12:53:50;;;;;;;;;;;;;;;;;;4863721;29;20497;-70
2022/05/24 12:56:15;;;;;;;;;;;;;;;;;;4896145;29;20421;-69
2022/05/24 12:58:41;;;;;;;;;;;;;;;;;;4896051;29;19915;-69
2022/05/24 13:01:06;;;;;;;;;;;;;;;;;;4879252;29;19919;-69
2022/05/24 13:03:32;;;;;;;;;;;;;;;;;;4895819;29;19971;-70
2022/05/24 13:06:10;;;;;;;;;;;;;;;;;;4878748;29;19911;-69
2022/05/24 13:08:36;;;;;;;;;;;;;;;;;;4895636;29;19915;-70
2022/05/24 13:11:02;;;;;;;;;;;;;;;;;;4896226;29;19919;-69
2022/05/24 13:13:27;;;;;;;;;;;;;;;;;;4896639;29;19923;-70
2022/05/24 13:15:53;;;;;;;;;;;;;;;;;;4895930;29;19916;-68
2022/05/24 13:18:18;;;;;;;;;;;;;;;;;;4895927;29;20017;-68
2022/05/24 13:20:44;;;;;;;;;;;;;;;;;;4895639;29;20010;-69
2022/05/24 13:23:09;;;;;;;;;;;;;;;;;;4895139;29;20310;-67
2022/05/24 13:25:35;;;;;;;;;;;;;;;;;;4894731;29;19915;-68
2022/05/24 13:28:02;;;;;;;;;;;;;;;;;;4895757;29;19915;-69
2022/05/24 13:35:56;;;;;;;;;;;;;;;;;;4895370;29;20371;-69
2022/05/24 13:38:24;;;;;;;;;;;;;;;;;;4895609;29;19915;-69
2022/05/24 13:40:49;;;;;;;;;;;;;;;;;;4895276;29;19926;-69
2022/05/24 13:43:15;;;;;;;;;;;;;;;;;;4895508;29;19920;-68
2022/05/24 13:45:41;;;;;;;;;;;;;;;;;;4878214;29;19922;-69
2022/05/24 13:48:06;;;;;;;;;;;;;;;;;;4895399;29;19922;-69
2022/05/24 13:50:33;;;;;;;;;;;;;;;;;;4894861;29;19915;-69
2022/05/24 13:52:58;;;;;;;;;;;;;;;;;;4895603;29;20023;-68
2022/05/24 13:55:24;;;;;;;;;;;;;;;;;;4895373;29;20378;-68
2022/05/24 13:57:50;;;;;;;;;;;;;;;;;;4862981;29;19954;-68
2022/05/24 14:00:15;;;;;;;;;;;;;;;;;;4895129;29;19922;-68
2022/05/24 14:02:41;;;;;;;;;;;;;;;;;;4895025;29;20384;-69
2022/05/24 14:05:07;;;;;;;;;;;;;;;;;;4878416;29;19915;-68
2022/05/24 14:07:32;;;;;;;;;;;;;;;;;;4895095;29;19963;-68
2022/05/24 14:09:58;;;;;;;;;;;;;;;;;;4895013;29;19915;-69
2022/05/24 14:12:24;;;;;;;;;;;;;;;;;;4895117;29;19915;-69
2022/05/24 14:14:49;;;;;;;;;;;;;;;;;;4894951;29;20087;-69
2022/05/24 14:17:16;;;;;;;;;;;;;;;;;;4895158;29;19922;-68
2022/05/24 14:19:41;;;;;;;;;;;;;;;;;;4862733;29;19915;-69
2022/05/24 14:22:07;;;;;;;;;;;;;;;;;;4878295;29;20414;-68
2022/05/24 14:24:40;;;;;;;;;;;;;;;;;;4878507;29;20382;-69
2022/05/24 14:27:05;;;;;;;;;;;;;;;;;;4895144;29;20410;-69
2022/05/24 14:29:32;;;;;;;;;;;;;;;;;;4895226;29;19915;-72
2022/05/24 14:31:57;;;;;;;;;;;;;;;;;;4894974;29;19915;-68
2022/05/24 14:34:26;;;;;;;;;;;;;;;;;;4894860;29;19918;-68
2022/05/24 14:36:52;;;;;;;;;;;;;;;;;;4878089;29;19988;-68
2022/05/24 14:39:18;;;;;;;;;;;;;;;;;;4895035;29;19990;-68
2022/05/24 14:41:44;;;;;;;;;;;;;;;;;;4877965;29;19923;-68
2022/05/24 14:44:09;;;;;;;;;;;;;;;;;;4878260;29;19964;-68
2022/05/24 14:46:35;;;;;;;;;;;;;;;;;;4895234;29;20426;-68
2022/05/24 14:49:01;;;;;;;;;;;;;;;;;;4881819;29;19947;-68
2022/05/24 14:51:27;;;;;;;;;;;;;;;;;;4898353;29;20017;-68
2022/05/24 14:53:53;;;;;;;;;;;;;;;;;;4881723;29;20006;-68
2022/05/24 14:56:18;;;;;;;;;;;;;;;;;;4881755;29;19963;-68
2022/05/24 14:58:44;;;;;;;;;;;;;;;;;;4898330;29;19995;-67
2022/05/24 15:01:09;;;;;;;;;;;;;;;;;;4898410;29;19923;-68
2022/05/24 15:03:35;;;;;;;;;;;;;;;;;;4898424;29;20306;-68
2022/05/24 15:06:01;;;;;;;;;;;;;;;;;;4898778;29;21023;-68
2022/05/24 15:16:41;;;;;;;;;;;;;;;;;;4897780;29;19916;-68
2022/05/24 15:19:06;;;;;;;;;;;;;;;;;;4881252;29;20314;-68
2022/05/24 15:21:32;;;;;;;;;;;;;;;;;;4881070;29;19927;-68
2022/05/24 15:23:58;;;;;;;;;;;;;;;;;;4897753;29;20046;-68
2022/05/24 15:26:23;;;;;;;;;;;;;;;;;;4896500;29;19922;-69
2022/05/24 15:28:54;;;;;;;;;;;;;;;;;;4895109;29;19922;-69
2022/05/24 15:31:20;;;;;;;;;;;;;;;;;;4877546;29;20356;-68
2022/05/24 15:33:46;;;;;;;;;;;;;;;;;;4878893;29;20399;-69
2022/05/24 15:36:13;;;;;;;;;;;;;;;;;;4879017;29;19930;-69
2022/05/24 15:38:38;;;;;;;;;;;;;;;;;;4878807;29;20351;-69
2022/05/24 15:41:06;;;;;;;;;;;;;;;;;;4878674;29;19920;-70
2022/05/24 15:43:32;;;;;;;;;;;;;;;;;;4878922;29;19916;-69
2022/05/24 15:45:58;;;;;;;;;;;;;;;;;;4891278;29;19915;-70
2022/05/24 15:48:23;;;;;;;;;;;;;;;;;;4897104;29;20358;-70
2022/05/24 15:50:49;;;;;;;;;;;;;;;;;;4897140;29;19916;-70
2022/05/24 15:53:14;;;;;;;;;;;;;;;;;;4897397;29;19915;-70
2022/05/24 15:55:40;;;;;;;;;;;;;;;;;;4880282;29;19922;-70
2022/05/24 15:58:06;;;;;;;;;;;;;;;;;;4896086;29;19923;-69
2022/05/24 16:00:31;;;;;;;;;;;;;;;;;;4897274;29;19971;-69
2022/05/24 16:02:57;;;;;;;;;;;;;;;;;;4880315;29;20449;-69
2022/05/24 16:10:51;;;;;;;;;;;;;;;;;;4896847;29;19922;-68
2022/05/24 16:13:17;;;;;;;;;;;;;;;;;;4897398;29;19915;-69
2022/05/24 16:15:43;;;;;;;;;;;;;;;;;;4896736;29;19938;-69
2022/05/24 16:18:08;;;;;;;;;;;;;;;;;;4896991;29;19950;-69
2022/05/24 16:20:34;;;;;;;;;;;;;;;;;;4897108;29;19953;-68
2022/05/24 16:22:59;;;;;;;;;;;;;;;;;;4896782;29;20318;-68
2022/05/24 16:25:25;;;;;;;;;;;;;;;;;;4879871;29;19915;-69
2022/05/24 16:27:51;;;;;;;;;;;;;;;;;;4879796;29;19915;-69
2022/05/24 16:30:16;;;;;;;;;;;;;;;;;;4896992;29;19915;-70
2022/05/24 16:32:42;;;;;;;;;;;;;;;;;;4896941;29;20466;-69
2022/05/24 16:35:08;;;;;;;;;;;;;;;;;;4896795;29;20014;-69
2022/05/24 16:37:33;;;;;;;;;;;;;;;;;;4877840;29;19922;-69
2022/05/24 16:39:59;;;;;;;;;;;;;;;;;;4895700;29;19927;-69
2022/05/24 16:42:24;;;;;;;;;;;;;;;;;;4896322;29;19923;-69
2022/05/24 16:44:50;;;;;;;;;;;;;;;;;;4893347;29;19922;-69
2022/05/24 16:47:15;;;;;;;;;;;;;;;;;;4896482;29;19916;-69
2022/05/24 16:49:41;;;;;;;;;;;;;;;;;;4896324;29;20394;-69
2022/05/24 16:52:07;;;;;;;;;;;;;;;;;;4891748;29;19964;-69
2022/05/24 17:00:01;;;;;;;;;;;;;;;;;;4896343;29;19922;-68
2022/05/24 17:02:27;;;;;;;;;;;;;;;;;;4896103;29;20018;-68
2022/05/24 17:04:52;;;;;;;;;;;;;;;;;;4879337;29;20015;-69
2022/05/24 17:07:19;;;;;;;;;;;;;;;;;;4896024;29;19919;-68
2022/05/24 17:09:45;;;;;;;;;;;;;;;;;;4895491;29;19964;-68
2022/05/24 17:12:10;;;;;;;;;;;;;;;;;;4896011;29;19919;-68
2022/05/24 17:14:36;;;;;;;;;;;;;;;;;;4896163;29;20376;-68
2022/05/24 17:17:02;;;;;;;;;;;;;;;;;;4895645;29;19922;-69
2022/05/24 17:19:28;;;;;;;;;;;;;;;;;;4863608;29;19916;-68
2022/05/24 17:21:53;;;;;;;;;;;;;;;;;;4895719;29;19923;-69
2022/05/24 17:24:19;;;;;;;;;;;;;;;;;;4895653;29;19915;-68
2022/05/24 17:26:44;;;;;;;;;;;;;;;;;;4895468;29;19919;-69
2022/05/24 17:29:10;;;;;;;;;;;;;;;;;;4896631;29;19915;-69
2022/05/24 17:31:36;;;;;;;;;;;;;;;;;;4896437;29;19912;-68
2022/05/24 17:45:22;;;;;;;3.35;2.88;;;;;;;;;;5141284;27;20400;-74
2022/05/24 17:47:51;;;;;;;3.17;2.97;;;;;;;;;;5124318;28;20027;-74
2022/05/24 17:50:17;;;;;;;2.90;2.70;;;;;;;;;;5109627;28;20495;-75